sensor_id;sensor_type;location;lat;lon;timestamp;pressure;altitude;pressure_sealevel;temperature;humidity
9091;BME280;4581;42.416;25.598;2024-03-22T00:00:41;98521.16;;;6.66;82.48
9091;BME280;4581;42.416;25.598;2024-03-22T00:03:07;98523.59;;;6.59;81.91
9091;BME280;4581;42.416;25.598;2024-03-22T00:05:33;98526.53;;;6.66;81.16
9091;BME280;4581;42.416;25.598;2024-03-22T00:07:59;98530.03;;;6.66;80.20
9091;BME280;4581;42.416;25.598;2024-03-22T00:10:25;98523.28;;;6.62;79.22
9091;BME280;4581;42.416;25.598;2024-03-22T00:12:50;98527.50;;;6.65;79.36
9091;BME280;4581;42.416;25.598;2024-03-22T00:15:16;98527.72;;;6.53;79.19
9091;BME280;4581;42.416;25.598;2024-03-22T00:17:44;98522.75;;;6.58;79.37
9091;BME280;4581;42.416;25.598;2024-03-22T00:20:10;98514.34;;;6.53;79.11
9091;BME280;4581;42.416;25.598;2024-03-22T00:22:36;98523.13;;;6.64;78.59
9091;BME280;4581;42.416;25.598;2024-03-22T00:25:02;98529.78;;;6.59;78.78
9091;BME280;4581;42.416;25.598;2024-03-22T00:27:28;98532.31;;;6.61;78.51
9091;BME280;4581;42.416;25.598;2024-03-22T00:29:53;98520.47;;;6.64;77.93
9091;BME280;4581;42.416;25.598;2024-03-22T00:32:19;98528.81;;;6.61;77.81
9091;BME280;4581;42.416;25.598;2024-03-22T00:34:44;98530.63;;;6.60;77.51
9091;BME280;4581;42.416;25.598;2024-03-22T00:37:10;98530.31;;;6.63;77.84
9091;BME280;4581;42.416;25.598;2024-03-22T00:39:36;98530.31;;;6.63;77.02
9091;BME280;4581;42.416;25.598;2024-03-22T00:42:02;98532.31;;;6.61;76.47
9091;BME280;4581;42.416;25.598;2024-03-22T00:44:28;98529.38;;;6.54;76.10
9091;BME280;4581;42.416;25.598;2024-03-22T00:46:53;98534.38;;;6.49;75.94
9091;BME280;4581;42.416;25.598;2024-03-22T00:49:19;98533.22;;;6.52;76.15
9091;BME280;4581;42.416;25.598;2024-03-22T00:51:44;98535.91;;;6.52;75.08
9091;BME280;4581;42.416;25.598;2024-03-22T00:54:11;98528.47;;;6.46;75.04
9091;BME280;4581;42.416;25.598;2024-03-22T00:56:36;98538.34;;;6.45;74.71
9091;BME280;4581;42.416;25.598;2024-03-22T00:59:02;98526.47;;;6.48;74.04
9091;BME280;4581;42.416;25.598;2024-03-22T01:01:28;98532.16;;;6.45;73.95
9091;BME280;4581;42.416;25.598;2024-03-22T01:03:53;98534.66;;;6.46;72.93
9091;BME280;4581;42.416;25.598;2024-03-22T01:06:19;98536.34;;;6.47;71.49
9091;BME280;4581;42.416;25.598;2024-03-22T01:08:50;98540.28;;;6.53;71.01
9091;BME280;4581;42.416;25.598;2024-03-22T01:11:17;98541.38;;;6.50;71.04
9091;BME280;4581;42.416;25.598;2024-03-22T01:13:43;98543.94;;;6.52;70.29
9091;BME280;4581;42.416;25.598;2024-03-22T01:16:09;98553.13;;;6.49;70.09
9091;BME280;4581;42.416;25.598;2024-03-22T01:18:38;98540.84;;;6.47;70.25
9091;BME280;4581;42.416;25.598;2024-03-22T01:21:04;98540.41;;;6.51;70.53
9091;BME280;4581;42.416;25.598;2024-03-22T01:23:30;98541.56;;;6.49;70.14
9091;BME280;4581;42.416;25.598;2024-03-22T01:25:56;98538.03;;;6.48;70.42
9091;BME280;4581;42.416;25.598;2024-03-22T01:28:22;98536.25;;;6.39;70.33
9091;BME280;4581;42.416;25.598;2024-03-22T01:30:48;98535.56;;;6.37;70.60
9091;BME280;4581;42.416;25.598;2024-03-22T01:33:13;98539.53;;;6.33;70.50
9091;BME280;4581;42.416;25.598;2024-03-22T01:35:39;98542.13;;;6.25;71.19
9091;BME280;4581;42.416;25.598;2024-03-22T01:38:05;98541.66;;;6.30;71.33
9091;BME280;4581;42.416;25.598;2024-03-22T01:40:31;98535.38;;;6.21;71.69
9091;BME280;4581;42.416;25.598;2024-03-22T01:42:57;98536.47;;;6.19;71.90
9091;BME280;4581;42.416;25.598;2024-03-22T01:45:23;98533.69;;;6.20;72.45
9091;BME280;4581;42.416;25.598;2024-03-22T01:47:53;98533.03;;;6.08;71.80
9091;BME280;4581;42.416;25.598;2024-03-22T01:50:20;98533.03;;;6.08;72.68
9091;BME280;4581;42.416;25.598;2024-03-22T01:52:46;98534.75;;;6.00;72.80
9091;BME280;4581;42.416;25.598;2024-03-22T01:55:13;98536.44;;;6.01;73.01
9091;BME280;4581;42.416;25.598;2024-03-22T01:57:39;98525.06;;;5.89;73.41
9091;BME280;4581;42.416;25.598;2024-03-22T02:00:06;98539.00;;;5.93;72.87
9091;BME280;4581;42.416;25.598;2024-03-22T02:02:34;98541.41;;;5.86;73.43
9091;BME280;4581;42.416;25.598;2024-03-22T02:05:11;98532.78;;;5.83;72.98
9091;BME280;4581;42.416;25.598;2024-03-22T02:07:37;98542.34;;;5.95;72.39
9091;BME280;4581;42.416;25.598;2024-03-22T02:10:02;98535.91;;;5.88;71.40
9091;BME280;4581;42.416;25.598;2024-03-22T02:12:28;98540.50;;;5.86;71.66
9091;BME280;4581;42.416;25.598;2024-03-22T02:14:57;98536.59;;;5.90;71.45
9091;BME280;4581;42.416;25.598;2024-03-22T02:17:23;98554.50;;;5.89;71.37
9091;BME280;4581;42.416;25.598;2024-03-22T02:19:49;98546.19;;;5.92;71.46
9091;BME280;4581;42.416;25.598;2024-03-22T02:22:14;98550.97;;;5.89;71.51
9091;BME280;4581;42.416;25.598;2024-03-22T02:24:40;98551.84;;;5.89;71.17
9091;BME280;4581;42.416;25.598;2024-03-22T02:27:06;98560.00;;;5.88;71.11
9091;BME280;4581;42.416;25.598;2024-03-22T02:29:31;98552.94;;;5.87;70.70
9091;BME280;4581;42.416;25.598;2024-03-22T02:31:57;98549.56;;;5.85;70.63
9091;BME280;4581;42.416;25.598;2024-03-22T02:34:24;98547.59;;;5.77;69.61
9091;BME280;4581;42.416;25.598;2024-03-22T02:36:49;98551.50;;;5.83;69.00
9091;BME280;4581;42.416;25.598;2024-03-22T02:39:15;98541.25;;;5.88;68.17
9091;BME280;4581;42.416;25.598;2024-03-22T02:41:41;98548.41;;;5.97;68.42
9091;BME280;4581;42.416;25.598;2024-03-22T02:44:06;98554.16;;;6.02;67.94
9091;BME280;4581;42.416;25.598;2024-03-22T02:46:32;98557.53;;;6.04;68.09
9091;BME280;4581;42.416;25.598;2024-03-22T02:48:58;98552.50;;;6.01;67.43
9091;BME280;4581;42.416;25.598;2024-03-22T02:51:23;98556.84;;;6.02;67.00
9091;BME280;4581;42.416;25.598;2024-03-22T02:53:50;98566.31;;;5.96;67.56
9091;BME280;4581;42.416;25.598;2024-03-22T02:56:15;98568.97;;;5.96;68.15
9091;BME280;4581;42.416;25.598;2024-03-22T02:58:41;98582.25;;;5.88;69.51
9091;BME280;4581;42.416;25.598;2024-03-22T03:01:07;98566.31;;;5.87;69.15
9091;BME280;4581;42.416;25.598;2024-03-22T03:03:32;98571.94;;;5.84;68.36
9091;BME280;4581;42.416;25.598;2024-03-22T03:05:58;98565.63;;;5.75;68.36
9091;BME280;4581;42.416;25.598;2024-03-22T03:08:24;98563.38;;;5.71;69.09
9091;BME280;4581;42.416;25.598;2024-03-22T03:10:49;98567.31;;;5.66;69.06
9091;BME280;4581;42.416;25.598;2024-03-22T03:13:15;98567.63;;;5.63;69.23
9091;BME280;4581;42.416;25.598;2024-03-22T03:15:41;98557.63;;;5.56;69.44
9091;BME280;4581;42.416;25.598;2024-03-22T03:18:09;98537.81;;;5.39;70.15
9091;BME280;4581;42.416;25.598;2024-03-22T03:20:34;98518.00;;;5.23;69.91
9091;BME280;4581;42.416;25.598;2024-03-22T03:23:00;98532.47;;;5.30;70.33
9091;BME280;4581;42.416;25.598;2024-03-22T03:25:27;98541.34;;;5.30;70.71
9091;BME280;4581;42.416;25.598;2024-03-22T03:27:53;98540.22;;;5.23;70.82
9091;BME280;4581;42.416;25.598;2024-03-22T03:30:18;98526.91;;;5.13;70.65
9091;BME280;4581;42.416;25.598;2024-03-22T03:32:44;98528.28;;;5.08;71.04
9091;BME280;4581;42.416;25.598;2024-03-22T03:35:10;98560.50;;;5.16;71.14
9091;BME280;4581;42.416;25.598;2024-03-22T03:37:36;98529.53;;;4.94;71.70
9091;BME280;4581;42.416;25.598;2024-03-22T03:40:02;98544.31;;;4.98;70.57
9091;BME280;4581;42.416;25.598;2024-03-22T03:42:28;98565.41;;;5.11;70.12
9091;BME280;4581;42.416;25.598;2024-03-22T03:44:54;98561.88;;;5.10;70.20
9091;BME280;4581;42.416;25.598;2024-03-22T03:47:20;98552.63;;;5.05;69.88
9091;BME280;4581;42.416;25.598;2024-03-22T03:49:46;98548.25;;;5.04;70.66
9091;BME280;4581;42.416;25.598;2024-03-22T03:52:12;98553.88;;;5.01;69.79
9091;BME280;4581;42.416;25.598;2024-03-22T03:54:37;98551.06;;;4.93;70.39
9091;BME280;4581;42.416;25.598;2024-03-22T03:57:05;98553.88;;;4.91;68.82
9091;BME280;4581;42.416;25.598;2024-03-22T03:59:30;98556.25;;;4.94;68.48
9091;BME280;4581;42.416;25.598;2024-03-22T04:01:56;98576.38;;;5.08;68.38
9091;BME280;4581;42.416;25.598;2024-03-22T04:04:24;98573.56;;;5.00;67.37
9091;BME280;4581;42.416;25.598;2024-03-22T04:06:50;98578.06;;;4.99;67.78
9091;BME280;4581;42.416;25.598;2024-03-22T04:09:16;98591.69;;;5.06;68.43
9091;BME280;4581;42.416;25.598;2024-03-22T04:11:41;98561.31;;;4.88;67.53
9091;BME280;4581;42.416;25.598;2024-03-22T04:14:09;98608.44;;;5.08;67.01
9091;BME280;4581;42.416;25.598;2024-03-22T04:16:35;98604.78;;;5.09;67.70
9091;BME280;4581;42.416;25.598;2024-03-22T04:19:01;98614.22;;;5.13;67.19
9091;BME280;4581;42.416;25.598;2024-03-22T04:21:26;98615.47;;;5.18;66.94
9091;BME280;4581;42.416;25.598;2024-03-22T04:23:52;98605.06;;;5.06;68.02
9091;BME280;4581;42.416;25.598;2024-03-22T04:26:18;98616.91;;;5.13;68.59
9091;BME280;4581;42.416;25.598;2024-03-22T04:28:43;98612.66;;;5.01;69.25
9091;BME280;4581;42.416;25.598;2024-03-22T04:31:09;98618.94;;;4.90;69.30
9091;BME280;4581;42.416;25.598;2024-03-22T04:33:36;98634.56;;;4.95;69.61
9091;BME280;4581;42.416;25.598;2024-03-22T04:36:03;98642.47;;;4.96;69.47
9091;BME280;4581;42.416;25.598;2024-03-22T04:38:29;98640.31;;;4.90;70.23
9091;BME280;4581;42.416;25.598;2024-03-22T04:40:56;98644.13;;;4.88;70.83
9091;BME280;4581;42.416;25.598;2024-03-22T04:43:23;98645.50;;;4.82;71.12
9091;BME280;4581;42.416;25.598;2024-03-22T04:45:49;98649.25;;;4.70;71.79
9091;BME280;4581;42.416;25.598;2024-03-22T04:48:23;98654.34;;;4.73;71.54
9091;BME280;4581;42.416;25.598;2024-03-22T04:50:50;98656.41;;;4.69;72.06
9091;BME280;4581;42.416;25.598;2024-03-22T04:53:17;98660.09;;;4.78;71.98
9091;BME280;4581;42.416;25.598;2024-03-22T04:55:44;98656.91;;;4.84;71.07
9091;BME280;4581;42.416;25.598;2024-03-22T04:58:14;98662.13;;;4.95;70.97
9091;BME280;4581;42.416;25.598;2024-03-22T05:00:41;98660.75;;;5.10;70.48
9091;BME280;4581;42.416;25.598;2024-03-22T05:03:07;98665.56;;;5.16;70.29
9091;BME280;4581;42.416;25.598;2024-03-22T05:05:33;98659.09;;;5.29;69.71
9091;BME280;4581;42.416;25.598;2024-03-22T05:08:00;98665.59;;;5.45;67.66
9091;BME280;4581;42.416;25.598;2024-03-22T05:10:26;98662.06;;;5.54;67.34
9091;BME280;4581;42.416;25.598;2024-03-22T05:12:51;98668.41;;;5.73;67.84
9091;BME280;4581;42.416;25.598;2024-03-22T05:15:17;98673.75;;;5.92;64.74
9091;BME280;4581;42.416;25.598;2024-03-22T05:17:43;98670.06;;;6.02;64.01
9091;BME280;4581;42.416;25.598;2024-03-22T05:20:09;98666.41;;;6.13;64.82
9091;BME280;4581;42.416;25.598;2024-03-22T05:22:39;98672.13;;;6.28;62.45
9091;BME280;4581;42.416;25.598;2024-03-22T05:25:05;98662.09;;;6.39;62.20
9091;BME280;4581;42.416;25.598;2024-03-22T05:27:31;98672.63;;;6.50;62.26
9091;BME280;4581;42.416;25.598;2024-03-22T05:29:58;98666.78;;;6.65;61.78
9091;BME280;4581;42.416;25.598;2024-03-22T05:32:25;98671.00;;;6.67;59.84
9091;BME280;4581;42.416;25.598;2024-03-22T05:34:51;98669.69;;;6.81;60.46
9091;BME280;4581;42.416;25.598;2024-03-22T05:37:17;98686.41;;;6.92;57.70
9091;BME280;4581;42.416;25.598;2024-03-22T05:39:43;98681.69;;;7.04;58.41
9091;BME280;4581;42.416;25.598;2024-03-22T05:42:09;98695.59;;;7.17;56.63
9091;BME280;4581;42.416;25.598;2024-03-22T05:44:34;98702.53;;;7.37;57.60
9091;BME280;4581;42.416;25.598;2024-03-22T05:47:00;98711.41;;;8.09;53.78
9091;BME280;4581;42.416;25.598;2024-03-22T05:49:26;98715.00;;;8.86;50.55
9091;BME280;4581;42.416;25.598;2024-03-22T05:51:52;98709.22;;;9.57;48.25
9091;BME280;4581;42.416;25.598;2024-03-22T05:54:18;98715.13;;;9.69;48.75
9091;BME280;4581;42.416;25.598;2024-03-22T05:56:44;98711.06;;;9.57;46.24
9091;BME280;4581;42.416;25.598;2024-03-22T05:59:09;98717.69;;;10.59;47.26
9091;BME280;4581;42.416;25.598;2024-03-22T06:01:36;98721.94;;;11.48;44.65
9091;BME280;4581;42.416;25.598;2024-03-22T06:04:01;98725.91;;;12.59;43.05
9091;BME280;4581;42.416;25.598;2024-03-22T06:06:27;98735.91;;;13.40;39.39
9091;BME280;4581;42.416;25.598;2024-03-22T06:08:53;98725.63;;;14.07;39.23
9091;BME280;4581;42.416;25.598;2024-03-22T06:11:20;98736.75;;;14.55;38.82
9091;BME280;4581;42.416;25.598;2024-03-22T06:13:47;98732.47;;;14.94;37.49
9091;BME280;4581;42.416;25.598;2024-03-22T06:16:13;98728.31;;;15.33;35.56
9091;BME280;4581;42.416;25.598;2024-03-22T06:18:39;98729.09;;;15.61;35.80
9091;BME280;4581;42.416;25.598;2024-03-22T06:21:05;98736.81;;;15.51;36.10
9091;BME280;4581;42.416;25.598;2024-03-22T06:23:31;98729.66;;;13.96;41.17
9091;BME280;4581;42.416;25.598;2024-03-22T06:25:57;98740.47;;;12.58;45.18
9091;BME280;4581;42.416;25.598;2024-03-22T06:28:23;98741.69;;;11.87;48.55
9091;BME280;4581;42.416;25.598;2024-03-22T06:30:49;98735.50;;;11.32;51.51
9091;BME280;4581;42.416;25.598;2024-03-22T06:33:15;98738.94;;;11.56;48.43
9091;BME280;4581;42.416;25.598;2024-03-22T06:35:41;98739.56;;;11.75;50.78
9091;BME280;4581;42.416;25.598;2024-03-22T06:38:07;98730.03;;;11.87;50.26
9091;BME280;4581;42.416;25.598;2024-03-22T06:40:33;98739.38;;;12.07;48.12
9091;BME280;4581;42.416;25.598;2024-03-22T06:42:58;98743.91;;;13.33;48.87
9091;BME280;4581;42.416;25.598;2024-03-22T06:45:24;98741.66;;;14.44;45.03
9091;BME280;4581;42.416;25.598;2024-03-22T06:47:49;98743.19;;;14.32;43.62
9091;BME280;4581;42.416;25.598;2024-03-22T06:50:16;98751.06;;;14.06;43.47
9091;BME280;4581;42.416;25.598;2024-03-22T06:52:43;98753.13;;;14.25;44.69
9091;BME280;4581;42.416;25.598;2024-03-22T06:55:09;98753.56;;;14.29;43.52
9091;BME280;4581;42.416;25.598;2024-03-22T06:57:37;98760.53;;;13.45;44.05
9091;BME280;4581;42.416;25.598;2024-03-22T07:00:03;98758.94;;;13.50;46.40
9091;BME280;4581;42.416;25.598;2024-03-22T07:02:29;98760.63;;;13.51;43.09
9091;BME280;4581;42.416;25.598;2024-03-22T07:04:55;98753.06;;;12.65;46.42
9091;BME280;4581;42.416;25.598;2024-03-22T07:07:20;98759.81;;;13.72;43.52
9091;BME280;4581;42.416;25.598;2024-03-22T07:09:46;98752.75;;;13.71;46.71
9091;BME280;4581;42.416;25.598;2024-03-22T07:12:13;98753.81;;;13.91;43.38
9091;BME280;4581;42.416;25.598;2024-03-22T07:14:39;98749.94;;;14.36;40.74
9091;BME280;4581;42.416;25.598;2024-03-22T07:17:04;98741.56;;;13.95;44.19
9091;BME280;4581;42.416;25.598;2024-03-22T07:19:31;98743.94;;;14.69;41.35
9091;BME280;4581;42.416;25.598;2024-03-22T07:21:56;98744.41;;;14.30;41.68
9091;BME280;4581;42.416;25.598;2024-03-22T07:24:25;98733.69;;;14.00;40.95
9091;BME280;4581;42.416;25.598;2024-03-22T07:26:51;98742.00;;;14.35;42.93
9091;BME280;4581;42.416;25.598;2024-03-22T07:29:17;98738.91;;;14.02;43.23
9091;BME280;4581;42.416;25.598;2024-03-22T07:31:43;98741.78;;;14.15;42.07
9091;BME280;4581;42.416;25.598;2024-03-22T07:34:08;98739.72;;;14.60;41.98
9091;BME280;4581;42.416;25.598;2024-03-22T07:36:38;98742.81;;;14.57;42.28
9091;BME280;4581;42.416;25.598;2024-03-22T07:39:04;98739.03;;;13.94;42.35
9091;BME280;4581;42.416;25.598;2024-03-22T07:41:34;98740.03;;;14.71;42.55
9091;BME280;4581;42.416;25.598;2024-03-22T07:44:00;98740.66;;;14.73;39.69
9091;BME280;4581;42.416;25.598;2024-03-22T07:46:27;98743.19;;;14.53;42.36
9091;BME280;4581;42.416;25.598;2024-03-22T07:48:53;98752.63;;;14.79;41.35
9091;BME280;4581;42.416;25.598;2024-03-22T07:51:19;98753.34;;;14.66;40.37
9091;BME280;4581;42.416;25.598;2024-03-22T07:53:45;98750.34;;;15.17;41.06
9091;BME280;4581;42.416;25.598;2024-03-22T07:56:11;98743.78;;;14.70;43.78
9091;BME280;4581;42.416;25.598;2024-03-22T07:58:38;98753.34;;;14.66;43.23
9091;BME280;4581;42.416;25.598;2024-03-22T08:01:04;98739.16;;;14.92;43.90
9091;BME280;4581;42.416;25.598;2024-03-22T08:03:30;98747.13;;;14.30;42.65
9091;BME280;4581;42.416;25.598;2024-03-22T08:05:55;98743.09;;;13.83;41.79
9091;BME280;4581;42.416;25.598;2024-03-22T08:08:21;98748.56;;;14.68;42.78
9091;BME280;4581;42.416;25.598;2024-03-22T08:10:46;98748.13;;;15.20;41.29
9091;BME280;4581;42.416;25.598;2024-03-22T08:13:12;98757.78;;;15.02;41.41
9091;BME280;4581;42.416;25.598;2024-03-22T08:15:38;98759.72;;;15.08;42.68
9091;BME280;4581;42.416;25.598;2024-03-22T08:18:04;98754.78;;;14.41;43.09
9091;BME280;4581;42.416;25.598;2024-03-22T08:20:29;98754.81;;;14.96;42.91
9091;BME280;4581;42.416;25.598;2024-03-22T08:22:57;98747.22;;;14.36;46.06
9091;BME280;4581;42.416;25.598;2024-03-22T08:25:23;98746.75;;;14.12;44.57
9091;BME280;4581;42.416;25.598;2024-03-22T08:27:50;98746.19;;;14.16;41.51
9091;BME280;4581;42.416;25.598;2024-03-22T08:30:15;98746.41;;;14.36;44.18
9091;BME280;4581;42.416;25.598;2024-03-22T08:32:41;98752.78;;;14.77;42.90
9091;BME280;4581;42.416;25.598;2024-03-22T08:35:07;98747.28;;;15.26;42.85
9091;BME280;4581;42.416;25.598;2024-03-22T08:37:33;98752.72;;;15.26;39.33
9091;BME280;4581;42.416;25.598;2024-03-22T08:39:59;98746.38;;;15.13;40.56
9091;BME280;4581;42.416;25.598;2024-03-22T08:42:25;98749.25;;;14.77;40.46
9091;BME280;4581;42.416;25.598;2024-03-22T08:44:51;98747.81;;;15.09;40.81
9091;BME280;4581;42.416;25.598;2024-03-22T08:47:16;98746.38;;;14.57;42.36
9091;BME280;4581;42.416;25.598;2024-03-22T08:49:42;98739.75;;;14.02;42.75
9091;BME280;4581;42.416;25.598;2024-03-22T08:52:10;98736.88;;;14.46;42.33
9091;BME280;4581;42.416;25.598;2024-03-22T08:54:35;98735.56;;;14.36;43.52
9091;BME280;4581;42.416;25.598;2024-03-22T08:57:01;98740.03;;;14.50;42.32
9091;BME280;4581;42.416;25.598;2024-03-22T08:59:27;98735.19;;;14.03;42.89
9091;BME280;4581;42.416;25.598;2024-03-22T09:01:53;98741.56;;;14.80;40.95
9091;BME280;4581;42.416;25.598;2024-03-22T09:04:19;98726.25;;;15.35;40.23
9091;BME280;4581;42.416;25.598;2024-03-22T09:06:45;98734.69;;;15.12;42.52
9091;BME280;4581;42.416;25.598;2024-03-22T09:09:11;98725.19;;;15.02;42.70
9091;BME280;4581;42.416;25.598;2024-03-22T09:11:37;98733.47;;;15.21;39.30
9091;BME280;4581;42.416;25.598;2024-03-22T09:14:02;98726.00;;;15.30;40.01
9091;BME280;4581;42.416;25.598;2024-03-22T09:16:29;98736.31;;;15.07;41.49
9091;BME280;4581;42.416;25.598;2024-03-22T09:18:54;98735.50;;;15.47;37.61
9091;BME280;4581;42.416;25.598;2024-03-22T09:21:20;98726.81;;;15.24;40.56
9091;BME280;4581;42.416;25.598;2024-03-22T09:23:46;98725.00;;;15.72;40.20
9091;BME280;4581;42.416;25.598;2024-03-22T09:26:11;98731.47;;;15.02;40.28
9091;BME280;4581;42.416;25.598;2024-03-22T09:28:37;98731.19;;;14.90;42.11
9091;BME280;4581;42.416;25.598;2024-03-22T09:31:04;98722.69;;;15.34;38.69
9091;BME280;4581;42.416;25.598;2024-03-22T09:33:34;98728.28;;;15.26;39.69
9091;BME280;4581;42.416;25.598;2024-03-22T09:36:01;98719.25;;;15.19;41.00
9091;BME280;4581;42.416;25.598;2024-03-22T09:38:27;98720.63;;;15.36;38.69
9091;BME280;4581;42.416;25.598;2024-03-22T09:40:53;98718.72;;;14.68;38.56
9091;BME280;4581;42.416;25.598;2024-03-22T09:43:23;98713.19;;;14.83;37.04
9091;BME280;4581;42.416;25.598;2024-03-22T09:45:49;98713.44;;;14.88;36.10
9091;BME280;4581;42.416;25.598;2024-03-22T09:48:19;98718.03;;;14.60;38.31
9091;BME280;4581;42.416;25.598;2024-03-22T09:50:48;98708.22;;;14.93;41.46
9091;BME280;4581;42.416;25.598;2024-03-22T09:53:21;98711.97;;;15.26;38.86
9091;BME280;4581;42.416;25.598;2024-03-22T09:55:52;98712.00;;;15.67;37.72
9091;BME280;4581;42.416;25.598;2024-03-22T09:58:18;98707.50;;;16.14;37.37
9091;BME280;4581;42.416;25.598;2024-03-22T10:00:44;98713.88;;;16.73;34.04
9091;BME280;4581;42.416;25.598;2024-03-22T10:03:10;98715.50;;;16.42;35.80
9091;BME280;4581;42.416;25.598;2024-03-22T10:05:37;98701.31;;;16.66;37.75
9091;BME280;4581;42.416;25.598;2024-03-22T10:08:03;98703.78;;;16.54;35.50
9091;BME280;4581;42.416;25.598;2024-03-22T10:10:32;98705.47;;;16.81;35.15
9091;BME280;4581;42.416;25.598;2024-03-22T10:12:59;98700.03;;;16.55;34.49
9091;BME280;4581;42.416;25.598;2024-03-22T10:15:26;98699.97;;;16.03;34.35
9091;BME280;4581;42.416;25.598;2024-03-22T10:17:52;98698.66;;;15.85;35.26
9091;BME280;4581;42.416;25.598;2024-03-22T10:20:20;98698.25;;;15.41;34.20
9091;BME280;4581;42.416;25.598;2024-03-22T10:22:55;98693.97;;;16.40;36.16
9091;BME280;4581;42.416;25.598;2024-03-22T10:25:22;98688.22;;;15.82;34.61
9091;BME280;4581;42.416;25.598;2024-03-22T10:27:48;98687.47;;;16.74;33.31
9091;BME280;4581;42.416;25.598;2024-03-22T10:30:16;98676.34;;;17.72;33.19
9091;BME280;4581;42.416;25.598;2024-03-22T10:32:45;98672.06;;;18.52;31.65
9091;BME280;4581;42.416;25.598;2024-03-22T10:35:14;98664.72;;;18.71;31.29
9091;BME280;4581;42.416;25.598;2024-03-22T10:37:41;98650.41;;;18.94;33.02
9091;BME280;4581;42.416;25.598;2024-03-22T10:40:07;98653.69;;;18.59;34.08
9091;BME280;4581;42.416;25.598;2024-03-22T10:42:39;98648.03;;;18.05;31.91
9091;BME280;4581;42.416;25.598;2024-03-22T10:45:07;98648.66;;;17.11;32.21
9091;BME280;4581;42.416;25.598;2024-03-22T10:47:34;98642.41;;;16.98;32.54
9091;BME280;4581;42.416;25.598;2024-03-22T10:50:07;98636.78;;;17.44;29.71
9091;BME280;4581;42.416;25.598;2024-03-22T10:52:40;98637.44;;;17.84;32.09
9091;BME280;4581;42.416;25.598;2024-03-22T10:55:13;98637.53;;;18.02;30.91
9091;BME280;4581;42.416;25.598;2024-03-22T10:57:43;98637.75;;;18.32;30.94
9091;BME280;4581;42.416;25.598;2024-03-22T11:00:09;98626.88;;;18.25;34.17
9091;BME280;4581;42.416;25.598;2024-03-22T11:02:38;98629.84;;;17.92;32.01
9091;BME280;4581;42.416;25.598;2024-03-22T11:05:04;98632.25;;;17.75;29.78
9091;BME280;4581;42.416;25.598;2024-03-22T11:07:31;98633.34;;;17.99;30.75
9091;BME280;4581;42.416;25.598;2024-03-22T11:09:57;98619.97;;;18.47;29.64
9091;BME280;4581;42.416;25.598;2024-03-22T11:12:27;98615.81;;;17.89;32.12
9091;BME280;4581;42.416;25.598;2024-03-22T11:14:53;98610.50;;;17.62;31.18
9091;BME280;4581;42.416;25.598;2024-03-22T11:17:19;98594.97;;;18.01;29.19
9091;BME280;4581;42.416;25.598;2024-03-22T11:19:48;98605.50;;;17.59;30.24
9091;BME280;4581;42.416;25.598;2024-03-22T11:22:14;98606.69;;;18.26;29.54
9091;BME280;4581;42.416;25.598;2024-03-22T11:24:40;98597.56;;;18.63;29.80
9091;BME280;4581;42.416;25.598;2024-03-22T11:27:06;98586.06;;;18.80;28.41
9091;BME280;4581;42.416;25.598;2024-03-22T11:29:32;98594.94;;;19.11;27.88
9091;BME280;4581;42.416;25.598;2024-03-22T11:31:59;98592.50;;;18.67;27.85
9091;BME280;4581;42.416;25.598;2024-03-22T11:34:25;98589.53;;;18.19;28.88
9091;BME280;4581;42.416;25.598;2024-03-22T11:36:53;98589.41;;;17.83;29.72
9091;BME280;4581;42.416;25.598;2024-03-22T11:39:19;98583.16;;;17.75;27.89
9091;BME280;4581;42.416;25.598;2024-03-22T11:41:45;98558.81;;;17.81;28.57
9091;BME280;4581;42.416;25.598;2024-03-22T11:44:15;98568.44;;;18.08;29.38
9091;BME280;4581;42.416;25.598;2024-03-22T11:46:41;98569.66;;;18.80;28.17
9091;BME280;4581;42.416;25.598;2024-03-22T11:49:07;98573.00;;;19.18;27.50
9091;BME280;4581;42.416;25.598;2024-03-22T11:51:33;98577.50;;;19.12;26.78
9091;BME280;4581;42.416;25.598;2024-03-22T11:54:02;98580.53;;;19.04;26.79
9091;BME280;4581;42.416;25.598;2024-03-22T11:56:28;98589.78;;;18.85;26.07
9091;BME280;4581;42.416;25.598;2024-03-22T11:59:00;98579.97;;;19.32;27.43
9091;BME280;4581;42.416;25.598;2024-03-22T12:01:28;98572.78;;;19.01;31.10
9091;BME280;4581;42.416;25.598;2024-03-22T12:03:54;98572.69;;;18.72;32.81
9091;BME280;4581;42.416;25.598;2024-03-22T12:06:20;98566.66;;;18.69;31.76
9091;BME280;4581;42.416;25.598;2024-03-22T12:08:47;98566.78;;;19.11;31.83
9091;BME280;4581;42.416;25.598;2024-03-22T12:11:12;98567.59;;;19.78;31.09
9091;BME280;4581;42.416;25.598;2024-03-22T12:13:38;98566.81;;;21.57;28.34
9091;BME280;4581;42.416;25.598;2024-03-22T12:16:04;98577.66;;;22.08;27.54
9091;BME280;4581;42.416;25.598;2024-03-22T12:18:30;98565.69;;;22.81;26.18
9091;BME280;4581;42.416;25.598;2024-03-22T12:20:56;98563.84;;;23.52;24.47
9091;BME280;4581;42.416;25.598;2024-03-22T12:23:22;98556.28;;;24.49;25.04
9091;BME280;4581;42.416;25.598;2024-03-22T12:25:49;98555.50;;;25.53;24.17
9091;BME280;4581;42.416;25.598;2024-03-22T12:28:15;98556.94;;;25.08;24.65
9091;BME280;4581;42.416;25.598;2024-03-22T12:30:41;98554.34;;;24.50;23.94
9091;BME280;4581;42.416;25.598;2024-03-22T12:33:08;98558.78;;;24.56;23.64
9091;BME280;4581;42.416;25.598;2024-03-22T12:35:37;98556.84;;;24.19;24.98
9091;BME280;4581;42.416;25.598;2024-03-22T12:38:03;98551.03;;;22.59;25.51
9091;BME280;4581;42.416;25.598;2024-03-22T12:40:29;98546.56;;;21.06;27.06
9091;BME280;4581;42.416;25.598;2024-03-22T12:42:56;98540.97;;;21.13;28.23
9091;BME280;4581;42.416;25.598;2024-03-22T12:45:21;98537.22;;;19.68;29.45
9091;BME280;4581;42.416;25.598;2024-03-22T12:47:47;98541.13;;;20.13;29.81
9091;BME280;4581;42.416;25.598;2024-03-22T12:50:13;98534.47;;;20.55;27.94
9091;BME280;4581;42.416;25.598;2024-03-22T12:52:39;98538.84;;;20.10;27.81
9091;BME280;4581;42.416;25.598;2024-03-22T12:55:05;98527.94;;;20.57;29.60
9091;BME280;4581;42.416;25.598;2024-03-22T12:57:32;98520.19;;;18.88;27.77
9091;BME280;4581;42.416;25.598;2024-03-22T12:59:58;98521.59;;;17.55;30.91
9091;BME280;4581;42.416;25.598;2024-03-22T13:02:24;98504.84;;;17.20;32.28
9091;BME280;4581;42.416;25.598;2024-03-22T13:04:52;98520.06;;;17.97;31.30
9091;BME280;4581;42.416;25.598;2024-03-22T13:07:19;98518.66;;;17.56;32.17
9091;BME280;4581;42.416;25.598;2024-03-22T13:09:45;98515.16;;;17.11;33.80